»·PEaware :: DCM204 KASE-KTEX

DCM204 :: KASE-KTEX

FLIGHT INFORMATION

Flight Status: Arrived
Operator:
DotCom
More flights by this operator :: More flights under this callsign
Pilot: Bill F. (18685)
Aircraft: Cessna 525C Citation CJ4
(C25C)
More flights by this aircraft type
Origin: KASE Aspen-Pitkin Co/Sardy
United States
Destination: KTEX Telluride Regl
United States
More flights between these airports :: More routes between these airports
Route: LINDZ9 LINDZ SLOLM MTJ ETL
File this flight plan on PilotEdge
Remarks:
Altitude:
(Current/Filed)
22,000ft
Speed:
(Current/Filed)
276kts
Departed: 22-Nov-21 09:51 PM
Arrived: 22-Nov-21 10:32 PM
Distance/Time
Traveled:
90nm/0:41
Distance/Time
To Go:
Arrived

Flight Plot

Page will automatically refresh every two minutes.

Flight plan parsing failed; only flown route is shown


Map Options




Map Legend


Flown Route
Filed Route
Departure Airport
Arrival Airport
Navaid (VOR, NDB)
Fix

Horizontal Profiles

Position Reports

Time Latitude Longitude Heading Altitude Ground
Speed
22-Nov-21 21:27 39.223196 -106.867218 76 7755ft 0kts
22-Nov-21 21:29 39.223196 -106.867218 76 7755ft 0kts
22-Nov-21 21:29 39.223196 -106.867218 76 7755ft 0kts
22-Nov-21 21:31 39.223196 -106.867218 76 7755ft 0kts
22-Nov-21 21:31 39.223196 -106.867218 76 7755ft 0kts
22-Nov-21 21:32 39.223196 -106.867218 76 7755ft 0kts
22-Nov-21 21:33 39.223196 -106.867218 76 7755ft 0kts
22-Nov-21 21:34 39.223196 -106.867218 76 7755ft 0kts
22-Nov-21 21:36 39.223196 -106.867218 76 7755ft 0kts
22-Nov-21 21:36 39.223196 -106.867218 76 7755ft 0kts
22-Nov-21 21:37 39.223196 -106.867218 76 7755ft 0kts
22-Nov-21 21:38 39.223196 -106.867218 76 7755ft 0kts
22-Nov-21 21:39 39.223196 -106.867218 76 7755ft 0kts
22-Nov-21 21:40 39.223196 -106.867218 76 7755ft 0kts
22-Nov-21 21:41 39.223196 -106.867218 76 7755ft 0kts
22-Nov-21 21:42 39.223198 -106.867133 96 7755ft 1kts
22-Nov-21 21:43 39.222972 -106.866917 150 7757ft 2kts
22-Nov-21 21:44 39.222377 -106.867089 184 7761ft 14kts
22-Nov-21 21:45 39.219391 -106.865840 159 7784ft 11kts
22-Nov-21 21:46 39.215188 -106.863853 161 7817ft 16kts
22-Nov-21 21:47 39.212240 -106.862490 181 7839ft 0kts
22-Nov-21 21:48 39.212240 -106.862490 181 7839ft 0kts
22-Nov-21 21:49 39.212465 -106.863743 339 7836ft 39kts
22-Nov-21 21:50 39.258368 -106.877079 349 10278ft 238kts
22-Nov-21 21:51 39.324254 -106.891149 349 15792ft 242kts
22-Nov-21 21:52 39.401730 -106.906655 350 18328ft 314kts
22-Nov-21 21:53 39.455123 -106.981762 263 21164ft 355kts
22-Nov-21 21:54 39.404989 -107.095011 269 21804ft 379kts
22-Nov-21 21:55 39.380603 -107.233488 257 21827ft 410kts
22-Nov-21 21:56 39.350830 -107.376151 258 21806ft 405kts
22-Nov-21 21:57 39.321171 -107.513600 258 21805ft 393kts
22-Nov-21 21:58 39.273319 -107.636022 209 21822ft 403kts
22-Nov-21 21:59 39.166993 -107.672405 194 21783ft 389kts
22-Nov-21 22:00 39.062429 -107.708621 195 21834ft 392kts
22-Nov-21 22:01 38.956695 -107.745109 195 21831ft 393kts
22-Nov-21 22:02 38.850742 -107.781548 195 21837ft 396kts
22-Nov-21 22:03 38.742187 -107.818770 196 21082ft 412kts
22-Nov-21 22:04 38.629322 -107.857044 196 20251ft 428kts
22-Nov-21 22:05 38.520314 -107.911742 213 19364ft 420kts
22-Nov-21 22:06 38.420483 -107.985723 211 18157ft 401kts
22-Nov-21 22:07 38.329590 -108.051804 210 16675ft 354kts
22-Nov-21 22:08 38.250559 -108.108369 211 15865ft 294kts
22-Nov-21 22:09 38.184832 -108.155097 210 15866ft 253kts
22-Nov-21 22:10 38.121596 -108.200538 210 14821ft 290kts
22-Nov-21 22:11 38.040391 -108.229723 154 13004ft 336kts
22-Nov-21 22:12 38.002764 -108.135419 106 11060ft 262kts
22-Nov-21 22:13 37.981094 -108.047340 108 11021ft 272kts
22-Nov-21 22:14 37.951669 -107.962074 125 11675ft 187kts
22-Nov-21 22:15 37.926637 -107.911267 101 11574ft 178kts
22-Nov-21 22:16 37.928169 -107.854340 40 11682ft 145kts
22-Nov-21 22:17 37.950264 -107.880600 266 9803ft 155kts
22-Nov-21 22:18 37.962045 -107.942946 291 11022ft 232kts
22-Nov-21 22:19 37.994577 -108.026785 294 13054ft 310kts
22-Nov-21 22:20 38.018731 -108.140754 281 12901ft 344kts
22-Nov-21 22:21 38.038973 -108.255807 291 12862ft 307kts
22-Nov-21 22:22 38.031430 -108.333306 188 12842ft 228kts
22-Nov-21 22:23 38.008330 -108.280095 77 12850ft 197kts
22-Nov-21 22:24 38.018849 -108.211694 73 12939ft 196kts
22-Nov-21 22:25 38.003001 -108.142988 109 13095ft 218kts
22-Nov-21 22:26 37.982700 -108.067060 106 13009ft 234kts
22-Nov-21 22:27 37.963447 -107.992856 115 12370ft 219kts
22-Nov-21 22:28 37.939165 -107.935295 114 11641ft 155kts
22-Nov-21 22:29 37.938175 -107.884715 33 10369ft 139kts
22-Nov-21 22:30 37.954940 -107.914092 286 9019ft 58kts
22-Nov-21 22:31 37.956301 -107.920305 202 9040ft 6kts
22-Nov-21 22:32 37.954512 -107.912091 103 9016ft 52kts
22-Nov-21 22:33 37.953376 -107.901302 301 9051ft 9kts
22-Nov-21 22:34 37.954461 -107.902396 14 9051ft 0kts
22-Nov-21 22:35 37.954461 -107.902396 14 9051ft 0kts
22-Nov-21 22:36 37.954461 -107.902396 14 9051ft 0kts
22-Nov-21 22:37 37.954461 -107.902396 14 9051ft 0kts
22-Nov-21 22:38 37.954461 -107.902396 14 9051ft 0kts
22-Nov-21 22:39 37.954461 -107.902396 14 9051ft 0kts
22-Nov-21 22:40 37.954461 -107.902396 14 9051ft 0kts
22-Nov-21 22:41 37.954461 -107.902396 14 9051ft 0kts
22-Nov-21 22:42 37.954461 -107.902396 14 9051ft 0kts
22-Nov-21 22:43 37.954461 -107.902396 14 9051ft 0kts
22-Nov-21 22:44 37.954461 -107.902396 14 9051ft 0kts
22-Nov-21 22:45 37.954461 -107.902396 14 9051ft 0kts

Navigation Log

Ident Type
Flight plan parsing failed, navigation log unavailable